Time;durP1;ratioP1;P1;durP2;ratioP2;P2;SDS_P1;SDS_P2;PMS_P1;PMS_P2;Temp;Humidity;BMP_temperature;BMP_pressure;BME280_temperature;BME280_humidity;BME280_pressure;Samples;Min_cycle;Max_cycle;Signal;HPM_P1;HPM_P2
2021/05/22 00:00:39;;;;;;;6.23;1.30;;;;;;;;;;5045412;28;20214;-82
2021/05/22 00:03:06;;;;;;;6.80;1.33;;;;;;;;;;5051741;28;20203;-81
2021/05/22 00:05:34;;;;;;;5.27;1.37;;;;;;;;;;5051730;28;20210;-81
2021/05/22 00:08:00;;;;;;;6.00;1.53;;;;;;;;;;5044833;28;20266;-81
2021/05/22 00:10:27;;;;;;;12.10;1.93;;;;;;;;;;5046044;28;20307;-81
2021/05/22 00:12:54;;;;;;;7.20;1.70;;;;;;;;;;5045241;28;20343;-81
2021/05/22 00:15:21;;;;;;;2.67;1.27;;;;;;;;;;5046463;28;20227;-81
2021/05/22 00:17:47;;;;;;;4.30;1.33;;;;;;;;;;5051085;28;20249;-81
2021/05/22 00:20:15;;;;;;;3.63;1.53;;;;;;;;;;5048620;28;20820;-81
2021/05/22 00:22:44;;;;;;;3.83;1.70;;;;;;;;;;5049943;28;20234;-82
2021/05/22 00:25:11;;;;;;;3.73;1.67;;;;;;;;;;5048162;28;20200;-81
2021/05/22 00:27:38;;;;;;;6.73;1.70;;;;;;;;;;5046873;28;20231;-81
2021/05/22 00:30:05;;;;;;;4.33;1.90;;;;;;;;;;5046513;28;20311;-81
2021/05/22 00:32:32;;;;;;;8.27;2.00;;;;;;;;;;5050815;28;20213;-81
2021/05/22 00:34:58;;;;;;;4.07;2.00;;;;;;;;;;5049181;28;20203;-81
2021/05/22 00:37:25;;;;;;;5.17;1.80;;;;;;;;;;5050778;28;20218;-81
2021/05/22 00:39:53;;;;;;;5.93;1.93;;;;;;;;;;5050733;28;20329;-81
2021/05/22 00:42:20;;;;;;;4.23;1.93;;;;;;;;;;5045261;28;20226;-81
2021/05/22 00:45:01;;;;;;;6.43;1.87;;;;;;;;;;5051023;28;20206;-81
2021/05/22 00:47:28;;;;;;;5.80;1.27;;;;;;;;;;5041822;28;20234;-81
2021/05/22 00:49:54;;;;;;;5.07;1.70;;;;;;;;;;5045498;28;20210;-80
2021/05/22 00:52:21;;;;;;;8.03;2.00;;;;;;;;;;5047287;28;20311;-81
2021/05/22 00:54:48;;;;;;;4.47;1.47;;;;;;;;;;5045573;28;20678;-79
2021/05/22 01:00:19;;;;;;;5.73;1.77;;;;;;;;;;5048075;28;20222;-81
2021/05/22 01:02:47;;;;;;;3.63;1.50;;;;;;;;;;5045728;28;20680;-81
2021/05/22 01:05:15;;;;;;;3.03;1.50;;;;;;;;;;5053605;28;20179;-81
2021/05/22 01:07:44;;;;;;;3.10;1.23;;;;;;;;;;5070252;28;20195;-81
2021/05/22 01:10:11;;;;;;;3.80;1.30;;;;;;;;;;5074452;28;20274;-81
2021/05/22 01:12:43;;;;;;;4.80;1.40;;;;;;;;;;5054702;28;20204;-81
2021/05/22 01:15:11;;;;;;;6.97;1.77;;;;;;;;;;5046312;28;20234;-81
2021/05/22 01:17:40;;;;;;;3.77;1.60;;;;;;;;;;5048569;28;20544;-81
2021/05/22 01:20:45;;;;;;;5.60;1.93;;;;;;;;;;5050296;28;20222;-81
2021/05/22 01:23:20;;;;;;;6.03;1.73;;;;;;;;;;5046677;28;20245;-81
2021/05/22 01:25:49;;;;;;;5.17;1.80;;;;;;;;;;5047484;28;20195;-80
2021/05/22 01:28:16;;;;;;;6.97;2.10;;;;;;;;;;5050807;28;20207;-81
2021/05/22 01:30:44;;;;;;;9.90;2.20;;;;;;;;;;5046642;28;20306;-81
2021/05/22 01:33:11;;;;;;;6.60;1.87;;;;;;;;;;5047564;28;20717;-81
2021/05/22 01:35:38;;;;;;;10.03;2.20;;;;;;;;;;5054915;28;20210;-81
2021/05/22 01:38:06;;;;;;;2.47;1.50;;;;;;;;;;5048112;28;20211;-81
2021/05/22 01:40:33;;;;;;;6.50;1.63;;;;;;;;;;5052233;28;20329;-81
2021/05/22 01:43:01;;;;;;;6.20;1.70;;;;;;;;;;5052991;28;20290;-81
2021/05/22 01:45:28;;;;;;;4.27;1.73;;;;;;;;;;5052590;28;20302;-81
2021/05/22 01:47:56;;;;;;;5.17;1.93;;;;;;;;;;5052741;28;20248;-80
2021/05/22 01:50:23;;;;;;;6.87;2.00;;;;;;;;;;5050311;28;20226;-81
2021/05/22 01:52:52;;;;;;;9.63;2.03;;;;;;;;;;5051014;28;20687;-82
2021/05/22 01:55:19;;;;;;;5.20;2.03;;;;;;;;;;5053619;28;20199;-83
2021/05/22 01:57:46;;;;;;;5.53;2.17;;;;;;;;;;5047414;28;20287;-82
2021/05/22 02:00:15;;;;;;;3.37;1.83;;;;;;;;;;5051398;28;20333;-81
2021/05/22 02:02:44;;;;;;;9.37;2.00;;;;;;;;;;5052781;28;20249;-82
2021/05/22 02:05:11;;;;;;;8.07;2.00;;;;;;;;;;5047305;28;20242;-82
2021/05/22 02:07:37;;;;;;;7.07;2.17;;;;;;;;;;5046353;28;20602;-82
2021/05/22 02:10:05;;;;;;;5.43;1.67;;;;;;;;;;5052359;28;20211;-82
2021/05/22 02:12:32;;;;;;;8.93;2.03;;;;;;;;;;5051898;28;20230;-82
2021/05/22 02:14:59;;;;;;;12.37;2.37;;;;;;;;;;5052198;28;20233;-82
2021/05/22 02:17:28;;;;;;;7.30;2.33;;;;;;;;;;5051834;28;20215;-82
2021/05/22 02:19:57;;;;;;;7.33;2.73;;;;;;;;;;5050063;28;20246;-82
2021/05/22 02:22:27;;;;;;;7.90;2.10;;;;;;;;;;5054541;28;20219;-82
2021/05/22 02:24:54;;;;;;;5.43;1.67;;;;;;;;;;5049201;28;20290;-82
2021/05/22 02:27:21;;;;;;;3.00;1.73;;;;;;;;;;5051488;28;20275;-82
2021/05/22 02:29:48;;;;;;;9.27;2.00;;;;;;;;;;5049956;28;20235;-82
2021/05/22 02:32:15;;;;;;;4.13;2.07;;;;;;;;;;5051245;28;20713;-82
2021/05/22 02:34:47;;;;;;;5.43;1.93;;;;;;;;;;5052617;28;20203;-83
2021/05/22 02:37:15;;;;;;;8.07;2.17;;;;;;;;;;5046866;28;20230;-82
2021/05/22 02:39:42;;;;;;;8.27;1.83;;;;;;;;;;5049513;28;20247;-82
2021/05/22 02:42:10;;;;;;;3.53;2.00;;;;;;;;;;5047933;28;20222;-81
2021/05/22 02:44:37;;;;;;;6.10;1.57;;;;;;;;;;5051989;28;20691;-82
2021/05/22 02:47:04;;;;;;;8.70;1.93;;;;;;;;;;5051517;28;20207;-82
2021/05/22 02:49:37;;;;;;;4.17;1.90;;;;;;;;;;5058855;28;20186;-82
2021/05/22 02:52:04;;;;;;;6.10;2.00;;;;;;;;;;5068352;28;20219;-81
2021/05/22 02:54:34;;;;;;;4.97;1.60;;;;;;;;;;5075788;28;20179;-82
2021/05/22 02:57:01;;;;;;;6.27;2.67;;;;;;;;;;5057850;28;20199;-82
2021/05/22 02:59:28;;;;;;;3.53;1.90;;;;;;;;;;5051224;28;20264;-82
2021/05/22 03:01:55;;;;;;;4.70;2.23;;;;;;;;;;5055144;28;20222;-82
2021/05/22 03:04:22;;;;;;;8.37;2.60;;;;;;;;;;5052402;28;20593;-82
2021/05/22 03:06:49;;;;;;;6.33;2.27;;;;;;;;;;5052377;28;20214;-82
2021/05/22 03:09:16;;;;;;;7.23;2.23;;;;;;;;;;5052191;28;20211;-82
2021/05/22 03:11:43;;;;;;;4.93;2.07;;;;;;;;;;5052651;28;20247;-82
2021/05/22 03:14:10;;;;;;;5.20;2.07;;;;;;;;;;5049141;28;20213;-82
2021/05/22 03:16:37;;;;;;;4.97;2.03;;;;;;;;;;5051182;28;20199;-82
2021/05/22 03:19:04;;;;;;;9.83;2.50;;;;;;;;;;5046631;28;20713;-82
2021/05/22 03:21:31;;;;;;;8.10;2.27;;;;;;;;;;5051441;28;20219;-82
2021/05/22 03:23:57;;;;;;;6.23;2.53;;;;;;;;;;5045272;28;20203;-82
2021/05/22 03:26:25;;;;;;;6.43;2.23;;;;;;;;;;5048677;28;20203;-82
2021/05/22 03:28:52;;;;;;;6.27;2.50;;;;;;;;;;5045211;28;20230;-81
2021/05/22 03:31:18;;;;;;;4.23;2.60;;;;;;;;;;5049512;28;20227;-82
2021/05/22 03:33:45;;;;;;;6.67;2.37;;;;;;;;;;5053216;28;20694;-82
2021/05/22 03:39:11;;;;;;;4.93;2.23;;;;;;;;;;5023171;28;20847;-82
2021/05/22 03:41:39;;;;;;;7.67;2.10;;;;;;;;;;5050733;28;20306;-82
2021/05/22 03:47:07;;;;;;;7.87;2.47;;;;;;;;;;5049978;28;20202;-81
2021/05/22 03:49:34;;;;;;;6.77;2.40;;;;;;;;;;5046344;28;20292;-81
2021/05/22 03:52:01;;;;;;;6.77;2.47;;;;;;;;;;5049768;28;20226;-82
2021/05/22 03:54:27;;;;;;;9.03;2.30;;;;;;;;;;5050398;28;20345;-81
2021/05/22 03:56:55;;;;;;;5.87;2.43;;;;;;;;;;5047595;28;20215;-81
2021/05/22 03:59:22;;;;;;;17.17;2.40;;;;;;;;;;5045404;28;20306;-82
2021/05/22 04:01:49;;;;;;;10.57;3.20;;;;;;;;;;5046014;28;20230;-80
2021/05/22 04:04:15;;;;;;;14.30;2.60;;;;;;;;;;5049152;28;21217;-81
2021/05/22 04:06:42;;;;;;;6.67;2.67;;;;;;;;;;5048715;28;20211;-81
2021/05/22 04:09:09;;;;;;;8.50;2.80;;;;;;;;;;5041901;28;20224;-81
2021/05/22 04:11:35;;;;;;;7.83;2.73;;;;;;;;;;5047488;28;20304;-81
2021/05/22 04:14:03;;;;;;;8.93;2.63;;;;;;;;;;5042462;28;20270;-81
2021/05/22 04:16:30;;;;;;;8.30;2.63;;;;;;;;;;5041767;28;20208;-80
2021/05/22 04:18:57;;;;;;;12.43;2.63;;;;;;;;;;5047152;28;20359;-80
2021/05/22 04:21:23;;;;;;;6.97;2.80;;;;;;;;;;5043512;28;20714;-81
2021/05/22 04:23:50;;;;;;;10.67;2.80;;;;;;;;;;5047156;28;20194;-81
2021/05/22 04:26:17;;;;;;;9.17;2.87;;;;;;;;;;5043658;28;20663;-82
2021/05/22 04:28:44;;;;;;;13.03;2.90;;;;;;;;;;5046055;28;20204;-82
2021/05/22 04:31:11;;;;;;;8.83;2.57;;;;;;;;;;5042450;28;20219;-81
2021/05/22 04:33:39;;;;;;;7.27;2.20;;;;;;;;;;5054021;28;20231;-82
2021/05/22 04:36:07;;;;;;;7.40;2.37;;;;;;;;;;5069101;28;20191;-82
2021/05/22 04:38:34;;;;;;;8.77;2.47;;;;;;;;;;5068447;28;20230;-82
2021/05/22 04:41:00;;;;;;;11.00;2.30;;;;;;;;;;5060980;28;20223;-81
2021/05/22 04:43:27;;;;;;;7.40;2.07;;;;;;;;;;5047909;28;20227;-81
2021/05/22 04:45:54;;;;;;;10.27;2.43;;;;;;;;;;5049389;28;20210;-82
2021/05/22 04:48:21;;;;;;;10.60;2.00;;;;;;;;;;5047413;28;20219;-81
2021/05/22 04:50:48;;;;;;;3.13;1.67;;;;;;;;;;5048790;28;20222;-81
2021/05/22 04:53:15;;;;;;;5.70;1.40;;;;;;;;;;5043320;28;20200;-81
2021/05/22 04:55:41;;;;;;;8.17;1.80;;;;;;;;;;5047932;28;20211;-82
2021/05/22 04:58:08;;;;;;;12.30;1.90;;;;;;;;;;5047015;28;20203;-82
2021/05/22 05:00:35;;;;;;;7.67;1.77;;;;;;;;;;5045248;28;20230;-81
2021/05/22 05:03:02;;;;;;;7.03;2.00;;;;;;;;;;5046639;28;20215;-81
2021/05/22 05:05:29;;;;;;;5.90;1.60;;;;;;;;;;5050154;28;20566;-81
2021/05/22 05:07:56;;;;;;;6.67;1.50;;;;;;;;;;5049580;28;20205;-81
2021/05/22 05:10:23;;;;;;;7.30;1.40;;;;;;;;;;5048068;28;20235;-82
2021/05/22 05:12:49;;;;;;;10.00;1.73;;;;;;;;;;5051803;28;20207;-82
2021/05/22 05:15:16;;;;;;;9.80;1.80;;;;;;;;;;5050865;28;20227;-82
2021/05/22 05:17:43;;;;;;;5.83;1.40;;;;;;;;;;5049119;28;20240;-82
2021/05/22 05:20:10;;;;;;;9.70;1.70;;;;;;;;;;5052051;28;20294;-81
2021/05/22 05:22:38;;;;;;;11.63;1.83;;;;;;;;;;5051076;28;20234;-82
2021/05/22 05:25:05;;;;;;;8.27;2.00;;;;;;;;;;5049781;28;20265;-82
2021/05/22 05:27:32;;;;;;;7.50;1.80;;;;;;;;;;5049596;28;20993;-82
2021/05/22 05:30:02;;;;;;;10.83;1.70;;;;;;;;;;5044952;28;20200;-82
2021/05/22 05:32:28;;;;;;;6.33;1.47;;;;;;;;;;5045207;28;20234;-82
2021/05/22 05:34:55;;;;;;;10.70;1.43;;;;;;;;;;5052463;28;20219;-82
2021/05/22 05:37:23;;;;;;;6.90;1.30;;;;;;;;;;5047419;28;20290;-82
2021/05/22 05:39:50;;;;;;;6.10;1.70;;;;;;;;;;5046416;28;20226;-82
2021/05/22 05:42:17;;;;;;;5.50;1.20;;;;;;;;;;5049096;28;20268;-82
2021/05/22 05:44:44;;;;;;;6.10;1.30;;;;;;;;;;5048600;28;20286;-81
2021/05/22 05:47:10;;;;;;;9.10;1.73;;;;;;;;;;5049314;28;20894;-81
2021/05/22 05:49:37;;;;;;;7.87;1.53;;;;;;;;;;5048894;28;20290;-82
2021/05/22 05:52:04;;;;;;;5.53;1.20;;;;;;;;;;5049220;28;20251;-82
2021/05/22 05:54:31;;;;;;;4.37;1.20;;;;;;;;;;5048753;28;20244;-82
2021/05/22 05:56:58;;;;;;;6.03;1.10;;;;;;;;;;5045658;28;20869;-81
2021/05/22 05:59:25;;;;;;;9.53;1.60;;;;;;;;;;5047708;28;20223;-82
2021/05/22 06:01:52;;;;;;;3.30;1.00;;;;;;;;;;5051259;28;20310;-82
2021/05/22 06:04:18;;;;;;;10.40;1.43;;;;;;;;;;5049643;28;20566;-82
2021/05/22 06:06:45;;;;;;;9.83;1.30;;;;;;;;;;5051126;28;20573;-82
2021/05/22 06:09:12;;;;;;;4.83;0.87;;;;;;;;;;5051152;28;20210;-81
2021/05/22 06:11:39;;;;;;;6.47;1.83;;;;;;;;;;5052380;28;20257;-81
2021/05/22 06:14:12;;;;;;;4.50;1.10;;;;;;;;;;5054697;28;20245;-82
2021/05/22 06:16:39;;;;;;;7.33;1.50;;;;;;;;;;5055113;28;20249;-82
2021/05/22 06:19:06;;;;;;;4.07;0.87;;;;;;;;;;5067069;28;20222;-82
2021/05/22 06:21:35;;;;;;;9.47;1.27;;;;;;;;;;5076048;28;20222;-82
2021/05/22 06:24:02;;;;;;;8.03;1.77;;;;;;;;;;5068574;28;20199;-81
2021/05/22 06:26:28;;;;;;;9.67;1.27;;;;;;;;;;5054414;28;20699;-81
2021/05/22 06:28:55;;;;;;;6.73;1.27;;;;;;;;;;5051173;28;20221;-82
2021/05/22 06:31:23;;;;;;;7.23;1.40;;;;;;;;;;5052225;28;20234;-81
2021/05/22 06:33:49;;;;;;;4.00;1.27;;;;;;;;;;5052227;28;20199;-82
2021/05/22 06:36:16;;;;;;;8.10;1.20;;;;;;;;;;5046695;28;20226;-81
2021/05/22 06:38:43;;;;;;;7.17;1.03;;;;;;;;;;5048411;28;20645;-81
2021/05/22 06:41:09;;;;;;;9.40;1.10;;;;;;;;;;5050017;28;20262;-80
2021/05/22 06:43:36;;;;;;;4.73;0.97;;;;;;;;;;5044723;28;20238;-80
2021/05/22 06:46:09;;;;;;;3.83;0.77;;;;;;;;;;5047163;28;20227;-81
2021/05/22 06:48:36;;;;;;;6.17;1.20;;;;;;;;;;5047385;28;20203;-81
2021/05/22 06:51:03;;;;;;;6.80;1.03;;;;;;;;;;5048620;28;20250;-81
2021/05/22 06:53:31;;;;;;;9.30;1.20;;;;;;;;;;5052646;28;20195;-81
2021/05/22 06:55:58;;;;;;;5.00;1.00;;;;;;;;;;5051233;28;20245;-80
2021/05/22 06:58:24;;;;;;;9.53;1.10;;;;;;;;;;5051496;28;20207;-82
2021/05/22 07:00:51;;;;;;;5.57;1.20;;;;;;;;;;5051037;28;20258;-81
2021/05/22 07:03:18;;;;;;;6.57;1.10;;;;;;;;;;5046531;28;20294;-81
2021/05/22 07:05:45;;;;;;;7.80;1.47;;;;;;;;;;5050858;28;20304;-81
2021/05/22 07:08:13;;;;;;;7.37;0.90;;;;;;;;;;5047622;28;20297;-81
2021/05/22 07:10:39;;;;;;;3.07;0.87;;;;;;;;;;5042576;28;20247;-81
2021/05/22 07:13:06;;;;;;;3.07;0.77;;;;;;;;;;5048208;28;20205;-81
2021/05/22 07:15:33;;;;;;;6.67;1.13;;;;;;;;;;5050283;28;22097;-81
2021/05/22 07:18:00;;;;;;;6.70;1.10;;;;;;;;;;5043632;28;20211;-81
2021/05/22 07:20:27;;;;;;;3.43;1.10;;;;;;;;;;5043559;28;20262;-81
2021/05/22 07:22:55;;;;;;;9.47;1.00;;;;;;;;;;5042277;28;20231;-81
2021/05/22 07:25:22;;;;;;;5.60;1.03;;;;;;;;;;5038961;28;20214;-81
2021/05/22 07:27:49;;;;;;;8.10;1.23;;;;;;;;;;5049620;28;20301;-81
2021/05/22 07:30:16;;;;;;;9.87;1.20;;;;;;;;;;5040995;28;20230;-81
2021/05/22 07:32:43;;;;;;;7.13;1.10;;;;;;;;;;5050147;28;20227;-81
2021/05/22 07:35:11;;;;;;;7.30;1.23;;;;;;;;;;5049519;28;20206;-81
2021/05/22 07:37:38;;;;;;;7.60;1.37;;;;;;;;;;5046715;28;20252;-80
2021/05/22 07:40:07;;;;;;;3.87;0.87;;;;;;;;;;5045370;28;20251;-81
2021/05/22 07:42:33;;;;;;;6.70;0.80;;;;;;;;;;5042185;28;20211;-81
2021/05/22 07:45:00;;;;;;;5.03;0.90;;;;;;;;;;5045581;28;20207;-81
2021/05/22 07:47:27;;;;;;;8.50;1.17;;;;;;;;;;5043762;28;20249;-80
2021/05/22 07:49:54;;;;;;;5.87;1.37;;;;;;;;;;5045607;28;20203;-80
2021/05/22 07:52:21;;;;;;;6.70;1.03;;;;;;;;;;5042586;28;20292;-80
2021/05/22 07:54:48;;;;;;;9.23;1.17;;;;;;;;;;5048759;28;20214;-81
2021/05/22 07:57:16;;;;;;;5.03;1.20;;;;;;;;;;5043286;28;20199;-81
2021/05/22 07:59:43;;;;;;;8.60;1.27;;;;;;;;;;5046122;28;20222;-81
2021/05/22 08:02:10;;;;;;;10.27;1.47;;;;;;;;;;5050138;28;20222;-81
2021/05/22 08:04:37;;;;;;;2.93;1.03;;;;;;;;;;5068066;28;20215;-81
2021/05/22 08:07:03;;;;;;;5.27;0.90;;;;;;;;;;5075969;28;20209;-81
2021/05/22 08:09:30;;;;;;;9.87;1.20;;;;;;;;;;5062453;28;20238;-81
2021/05/22 08:11:57;;;;;;;5.70;1.30;;;;;;;;;;5052692;28;20218;-81
2021/05/22 08:14:25;;;;;;;9.33;1.60;;;;;;;;;;5050589;28;20248;-81
2021/05/22 08:16:51;;;;;;;6.03;1.10;;;;;;;;;;5049219;28;20199;-81
2021/05/22 08:19:18;;;;;;;3.40;1.03;;;;;;;;;;5047010;28;20310;-82
2021/05/22 08:21:45;;;;;;;6.67;1.30;;;;;;;;;;5046852;28;20222;-80
2021/05/22 08:24:13;;;;;;;6.80;1.50;;;;;;;;;;5044438;28;20238;-81
2021/05/22 08:26:43;;;;;;;6.90;2.30;;;;;;;;;;5046437;28;20598;-81
2021/05/22 08:29:10;;;;;;;5.97;0.80;;;;;;;;;;5045564;28;20215;-80
2021/05/22 08:31:38;;;;;;;5.37;0.60;;;;;;;;;;5051620;28;20313;-80
2021/05/22 08:34:05;;;;;;;4.03;0.80;;;;;;;;;;5049104;28;20205;-81
2021/05/22 08:36:32;;;;;;;5.07;0.90;;;;;;;;;;5046814;28;20210;-81
2021/05/22 08:38:59;;;;;;;2.83;0.80;;;;;;;;;;5049455;28;20308;-81
2021/05/22 08:41:26;;;;;;;1.73;0.80;;;;;;;;;;5053391;28;20265;-80
2021/05/22 08:43:53;;;;;;;9.27;0.97;;;;;;;;;;5053609;28;20195;-80
2021/05/22 08:49:41;;;;;;;5.73;1.17;;;;;;;;;;5049108;28;20207;-81
2021/05/22 08:52:08;;;;;;;3.63;0.70;;;;;;;;;;5053442;28;20298;-81
2021/05/22 08:54:35;;;;;;;1.57;0.50;;;;;;;;;;5054352;28;20274;-81
2021/05/22 08:57:02;;;;;;;3.87;0.93;;;;;;;;;;5050381;28;20210;-80
2021/05/22 08:59:29;;;;;;;2.43;0.77;;;;;;;;;;5055079;28;20226;-81
2021/05/22 09:01:55;;;;;;;2.37;0.90;;;;;;;;;;5055164;28;20245;-81
2021/05/22 09:04:22;;;;;;;4.07;0.60;;;;;;;;;;5055842;28;20346;-80
2021/05/22 09:07:04;;;;;;;6.40;0.90;;;;;;;;;;5055024;28;20242;-81
2021/05/22 09:09:41;;;;;;;3.90;0.90;;;;;;;;;;5049787;28;20199;-81
2021/05/22 09:12:08;;;;;;;5.80;1.20;;;;;;;;;;5055705;28;20272;-82
2021/05/22 09:14:43;;;;;;;5.20;1.00;;;;;;;;;;5052192;28;20223;-81
2021/05/22 09:17:10;;;;;;;2.57;0.83;;;;;;;;;;5052658;28;20260;-81
2021/05/22 09:19:37;;;;;;;6.97;1.20;;;;;;;;;;5054512;28;20254;-81
2021/05/22 09:22:23;;;;;;;5.13;0.90;;;;;;;;;;5052518;28;20326;-82
2021/05/22 09:24:57;;;;;;;9.97;1.20;;;;;;;;;;5052519;28;20225;-81
2021/05/22 09:27:24;;;;;;;4.20;1.00;;;;;;;;;;5051199;28;20210;-81
2021/05/22 09:29:51;;;;;;;3.77;0.77;;;;;;;;;;5052437;28;20234;-82
2021/05/22 09:32:17;;;;;;;5.80;0.97;;;;;;;;;;5052872;28;20251;-81
2021/05/22 09:34:44;;;;;;;4.97;1.27;;;;;;;;;;5050584;28;20202;-82
2021/05/22 09:37:12;;;;;;;3.70;0.97;;;;;;;;;;5051654;28;20238;-82
2021/05/22 09:39:45;;;;;;;3.53;0.90;;;;;;;;;;5053601;28;20265;-82
2021/05/22 09:42:13;;;;;;;2.20;0.70;;;;;;;;;;5050277;28;20227;-81
2021/05/22 09:44:40;;;;;;;8.10;0.90;;;;;;;;;;5054531;28;20261;-81
2021/05/22 09:47:07;;;;;;;2.30;0.87;;;;;;;;;;5057368;28;20207;-82
2021/05/22 09:49:35;;;;;;;4.90;0.97;;;;;;;;;;5074148;28;20210;-82
2021/05/22 09:52:03;;;;;;;2.50;0.77;;;;;;;;;;5075747;28;20199;-81
2021/05/22 09:54:42;;;;;;;2.60;0.63;;;;;;;;;;5072673;28;20198;-80
2021/05/22 09:57:09;;;;;;;4.00;1.00;;;;;;;;;;5053081;28;20207;-81
2021/05/22 09:59:36;;;;;;;3.53;1.07;;;;;;;;;;5050504;28;20219;-81
2021/05/22 10:02:06;;;;;;;3.67;0.67;;;;;;;;;;5051692;28;20352;-81
2021/05/22 10:04:33;;;;;;;3.00;0.60;;;;;;;;;;5053170;28;20659;-81
2021/05/22 10:07:00;;;;;;;3.17;0.80;;;;;;;;;;5050004;28;20203;-82
2021/05/22 10:09:28;;;;;;;3.63;0.83;;;;;;;;;;5051202;28;20298;-82
2021/05/22 10:12:05;;;;;;;3.93;1.10;;;;;;;;;;5049659;28;20269;-81
2021/05/22 10:14:32;;;;;;;5.43;0.80;;;;;;;;;;5048242;28;20202;-81
2021/05/22 10:17:02;;;;;;;2.40;0.80;;;;;;;;;;5047071;28;21070;-81
2021/05/22 10:19:31;;;;;;;3.83;0.70;;;;;;;;;;5045944;28;20222;-82
2021/05/22 10:22:00;;;;;;;2.10;0.80;;;;;;;;;;5048919;28;20238;-82
2021/05/22 10:24:27;;;;;;;2.87;0.60;;;;;;;;;;5046265;28;20211;-81
2021/05/22 10:26:54;;;;;;;2.10;0.50;;;;;;;;;;5045284;28;20211;-81
2021/05/22 10:29:21;;;;;;;5.00;0.70;;;;;;;;;;5045890;28;20230;-80
2021/05/22 10:31:48;;;;;;;2.20;0.70;;;;;;;;;;5045081;28;20769;-81
2021/05/22 10:37:37;;;;;;;3.23;0.80;;;;;;;;;;5045933;28;20610;-82
2021/05/22 10:40:06;;;;;;;4.97;0.97;;;;;;;;;;5047783;28;20288;-82
2021/05/22 10:46:00;;;;;;;2.27;0.60;;;;;;;;;;5043334;28;20577;-83
2021/05/22 10:48:45;;;;;;;2.57;0.60;;;;;;;;;;5045640;28;20745;-82
2021/05/22 10:51:22;;;;;;;6.20;1.00;;;;;;;;;;5043739;28;20233;-82
2021/05/22 10:53:54;;;;;;;1.07;0.60;;;;;;;;;;5042627;28;20203;-82
2021/05/22 10:56:22;;;;;;;3.53;0.80;;;;;;;;;;5045095;28;20286;-83
2021/05/22 10:59:09;;;;;;;3.87;0.87;;;;;;;;;;5042097;28;20256;-82
2021/05/22 11:01:40;;;;;;;2.67;0.80;;;;;;;;;;5042981;28;20715;-82
2021/05/22 11:04:25;;;;;;;5.73;0.90;;;;;;;;;;5044667;28;20297;-83
2021/05/22 11:06:53;;;;;;;6.03;1.00;;;;;;;;;;5045520;28;20199;-82
2021/05/22 11:09:38;;;;;;;4.90;0.83;;;;;;;;;;5045131;28;21566;-83
2021/05/22 11:12:29;;;;;;;2.27;0.77;;;;;;;;;;5045189;28;20226;-83
2021/05/22 11:14:56;;;;;;;2.90;0.80;;;;;;;;;;5045050;28;20211;-83
2021/05/22 11:17:38;;;;;;;2.10;0.60;;;;;;;;;;5047204;28;20288;-83
2021/05/22 11:20:17;;;;;;;2.13;0.60;;;;;;;;;;5048086;28;20246;-83
2021/05/22 11:22:58;;;;;;;4.90;1.40;;;;;;;;;;5045779;28;20207;-82
2021/05/22 11:25:26;;;;;;;2.10;0.70;;;;;;;;;;5047913;28;20202;-84
2021/05/22 11:28:00;;;;;;;5.03;1.00;;;;;;;;;;5048476;28;20210;-83
2021/05/22 11:30:43;;;;;;;3.47;0.70;;;;;;;;;;5042227;28;20264;-82
2021/05/22 11:33:11;;;;;;;7.70;1.40;;;;;;;;;;5054604;28;20190;-84
2021/05/22 11:35:39;;;;;;;7.13;0.93;;;;;;;;;;5068549;28;20259;-82
2021/05/22 11:38:25;;;;;;;7.07;1.67;;;;;;;;;;5069080;28;20199;-83
2021/05/22 11:40:53;;;;;;;3.80;0.77;;;;;;;;;;5053724;28;20679;-83
2021/05/22 11:43:28;;;;;;;6.53;1.00;;;;;;;;;;5051599;28;20257;-84
2021/05/22 11:45:56;;;;;;;5.83;0.90;;;;;;;;;;5047602;28;20213;-84
2021/05/22 11:48:24;;;;;;;7.83;1.40;;;;;;;;;;5049053;28;20199;-84
2021/05/22 11:50:51;;;;;;;5.10;1.10;;;;;;;;;;5048370;28;20222;-83
2021/05/22 11:53:18;;;;;;;3.67;0.80;;;;;;;;;;5049145;28;20199;-83
2021/05/22 11:55:45;;;;;;;6.70;1.40;;;;;;;;;;5049871;28;20207;-83
2021/05/22 11:58:12;;;;;;;6.57;1.10;;;12.20;99.90;;;;;;5049504;28;20233;-82
2021/05/22 12:00:40;;;;;;;5.80;0.90;;;16.40;99.90;;;;;;5048367;28;20231;-82
2021/05/22 12:03:07;;;;;;;4.27;0.90;;;16.10;99.90;;;;;;5048033;28;20203;-83
2021/05/22 12:05:40;;;;;;;4.57;1.23;;;16.00;99.90;;;;;;5047640;28;20203;-83
2021/05/22 12:08:15;;;;;;;3.73;1.00;;;16.20;99.90;;;;;;5049367;28;20209;-83
2021/05/22 12:10:42;;;;;;;6.53;1.00;;;16.50;99.90;;;;;;5045726;28;20313;-81
2021/05/22 12:13:08;;;;;;;6.07;1.57;;;16.70;99.90;;;;;;5050302;28;20207;-82
2021/05/22 12:15:36;;;;;;;3.50;1.10;;;16.90;99.90;;;;;;5046481;28;20191;-82
2021/05/22 12:18:05;;;;;;;3.90;0.80;;;16.80;99.90;;;;;;5048988;28;20234;-81
2021/05/22 12:20:44;;;;;;;5.10;1.50;;;16.30;99.90;;;;;;5047065;28;20226;-82
2021/05/22 12:23:24;;;;;;;3.80;1.13;;;15.80;99.90;;;;;;5049269;28;20229;-81
2021/05/22 12:25:51;;;;;;;3.90;1.00;;;15.90;99.90;;;;;;5046317;28;20282;-82
2021/05/22 12:28:19;;;;;;;3.87;0.80;;;16.10;99.90;;;;;;5048523;28;20203;-82
2021/05/22 12:30:45;;;;;;;4.57;1.10;;;16.30;99.90;;;;;;5044475;28;20242;-82
2021/05/22 12:33:15;;;;;;;4.03;0.97;;;16.50;99.90;;;;;;5045612;28;20223;-81
2021/05/22 12:35:42;;;;;;;5.17;1.30;;;16.80;99.90;;;;;;5045217;28;20246;-82
2021/05/22 12:38:08;;;;;;;6.17;1.20;;;17.00;99.90;;;;;;5047807;28;20805;-81
2021/05/22 12:40:46;;;;;;;6.53;2.43;;;16.90;99.90;;;;;;5047245;28;20222;-81
2021/05/22 12:43:13;;;;;;;4.23;1.30;;;16.90;99.90;;;;;;5042567;28;20605;-82
2021/05/22 12:45:43;;;;;;;6.93;1.20;;;16.70;99.90;;;;;;5044556;28;20283;-83
2021/05/22 12:48:24;;;;;;;4.20;0.87;;;;;;;;;;5044634;28;20214;-84
2021/05/22 12:50:52;;;;;;;5.57;1.00;;;;;;;;;;5042073;28;20222;-83
2021/05/22 12:53:29;;;;;;;3.03;0.97;;;;;;;;;;5046377;28;20230;-83
2021/05/22 12:56:03;;;;;;;4.27;0.80;;;;;;;;;;5044022;28;21956;-83
2021/05/22 12:58:29;;;;;;;4.00;1.17;;;;;;;;;;5044901;28;20862;-83
2021/05/22 13:00:59;;;;;;;3.70;0.90;;;;;;;;;;5049347;28;20238;-82
2021/05/22 13:03:36;;;;;;;3.77;1.10;;;;;;;;;;5048953;28;20206;-83
2021/05/22 13:06:05;;;;;;;5.93;1.63;;;;;;;;;;5048159;28;20879;-81
2021/05/22 13:08:32;;;;;;;11.17;2.57;;;;;;;;;;5048262;28;20243;-82
2021/05/22 13:11:09;;;;;;;5.30;2.10;;;;;;;;;;5049481;28;20296;-82
2021/05/22 13:13:36;;;;;;;6.87;1.27;;;;;;;;;;5046719;28;20237;-81
2021/05/22 13:16:07;;;;;;;7.53;1.50;;;;;;;;;;5055179;28;20558;-81
2021/05/22 13:18:35;;;;;;;7.33;1.50;;;;;;;;;;5065948;28;20217;-82
2021/05/22 13:21:03;;;;;;;6.03;1.50;;;;;;;;;;5074859;28;20230;-81
2021/05/22 13:23:35;;;;;;;3.73;1.10;;;;;;;;;;5070284;28;20183;-81
2021/05/22 13:26:02;;;;;;;4.37;1.17;;;;;;;;;;5050529;28;20211;-81
2021/05/22 13:28:29;;;;;;;4.97;1.40;;;;;;;;;;5049638;28;21149;-81
2021/05/22 13:31:11;;;;;;;4.23;1.10;;;;;;;;;;5052625;28;20231;-81
2021/05/22 13:33:38;;;;;;;5.03;1.13;;;;;;;;;;5052812;28;20206;-81
2021/05/22 13:36:06;;;;;;;4.43;1.50;;;;;;;;;;5049720;28;20211;-81
2021/05/22 13:38:33;;;;;;;7.70;1.50;;;;;;;;;;5051140;28;20195;-81
2021/05/22 13:41:00;;;;;;;5.03;1.60;;;;;;;;;;5051667;28;20261;-81
2021/05/22 13:43:30;;;;;;;4.93;1.40;;;;;;;;;;5051976;28;20199;-81
2021/05/22 13:45:57;;;;;;;4.50;1.10;;;;;;;;;;5041908;28;20202;-81
2021/05/22 13:48:24;;;;;;;5.57;1.27;;;;;;;;;;5046096;28;20218;-81
2021/05/22 13:50:51;;;;;;;4.90;0.90;;;;;;;;;;5047999;28;20254;-81
2021/05/22 13:53:18;;;;;;;7.93;1.10;;;;;;;;;;5049774;28;20281;-81
2021/05/22 13:55:46;;;;;;;4.80;0.90;;;;;;;;;;5044839;28;20572;-82
2021/05/22 13:58:16;;;;;;;8.83;0.87;;;;;;;;;;5051948;28;20600;-82
2021/05/22 14:00:43;;;;;;;4.93;1.10;;;;;;;;;;5046752;28;20309;-81
2021/05/22 14:03:10;;;;;;;3.73;0.80;;;;;;;;;;5047729;28;20207;-81
2021/05/22 14:05:37;;;;;;;4.43;1.60;;;;;;;;;;5047978;28;20574;-81
2021/05/22 14:08:04;;;;;;;8.10;1.10;;;;;;;;;;5051834;28;20214;-83
2021/05/22 14:10:32;;;;;;;6.53;0.90;;;16.50;99.90;;;;;;5044640;28;20230;-83
2021/05/22 14:13:01;;;;;;;4.00;1.13;;;17.50;99.90;;;;;;5046966;28;20677;-82
2021/05/22 14:15:28;;;;;;;6.53;1.00;;;17.40;99.90;;;;;;5048057;28;20214;-83
2021/05/22 14:17:56;;;;;;;4.73;0.80;;;17.50;99.90;;;;;;5044918;28;20625;-82
2021/05/22 14:20:23;;;;;;;3.63;0.80;;;17.70;99.90;;;;;;5048387;28;20286;-82
2021/05/22 14:22:49;;;;;;;5.83;1.00;;;17.50;99.90;;;;;;5048176;28;20262;-82
2021/05/22 14:25:18;;;;;;;4.80;0.80;;;17.30;99.90;;;;;;5047097;28;20238;-82
2021/05/22 14:27:45;;;;;;;4.53;0.83;;;17.10;99.90;;;;;;5045863;28;20215;-82
2021/05/22 14:30:16;;;;;;;0.87;0.40;;;17.10;99.90;;;;;;5048615;28;20671;-83
2021/05/22 14:32:42;;;;;;;5.67;0.80;;;17.00;99.90;;;;;;5051470;28;20203;-81
2021/05/22 14:35:11;;;;;;;7.83;1.30;;;16.80;99.90;;;;;;5052862;28;20214;-83
2021/05/22 14:37:38;;;;;;;9.40;1.17;;;16.90;99.90;;;;;;5052982;28;20222;-82
2021/05/22 14:40:07;;;;;;;5.67;1.20;;;16.80;99.90;;;;;;5051221;28;20258;-82
2021/05/22 14:42:34;;;;;;;4.07;1.07;;;16.70;99.90;;;;;;5049180;28;20222;-84
2021/05/22 14:45:00;;;;;;;3.90;1.10;;;16.70;99.90;;;;;;5049172;28;20660;-83
2021/05/22 14:47:28;;;;;;;3.97;1.00;;;16.80;99.90;;;;;;5047712;28;20203;-81
2021/05/22 14:49:54;;;;;;;4.40;0.90;;;16.60;99.90;;;;;;5044660;28;20199;-83
2021/05/22 14:52:21;;;;;;;7.37;0.90;;;16.60;99.90;;;;;;5047547;28;20230;-82
2021/05/22 14:54:47;;;;;;;3.60;0.90;;;16.70;99.90;;;;;;5039559;28;20203;-83